Maratha Promise — V7YE5 — position and weather

sailwx.info

Track history (hours):
 
Tides and Currents Weather Stations Pressure Air Temp Water Temp Dewpoint Dewpoint Depression Visibility Wind Speed Wind Dir Waves Ship Positions

Maratha Promise

Last reported at 2014-Aug-20 18:31 UTC. Time now 2014-Aug-21 19:58 UTC.
Position N 40°22' E 121°47'.

Length 178 m; draft 8.1 m.

Type: Cargo ship. MMSI: 538004641.

Date/timePositionNaut miles runAvg speedWind from/ knotsBaromVisibWave heightAir tempDewpointWater temp
2014-Aug-20 18:31N 40°22' E 121°47'0 0.0
2014-Aug-20 13:07N 40°22' E 121°47'0 0.1
2014-Aug-20 12:22N 40°22' E 121°47'0 0.1
2014-Aug-20 11:28N 40°22' E 121°47'2 0.9
2014-Aug-20 09:33N 40°21' E 121°45'9 8.5
2014-Aug-20 08:33N 40°15' E 121°37'1211.6
2014-Aug-20 07:33N 40°05' E 121°29'6312.5
2014-Aug-20 02:28N 39°24' E 120°27'2513.0
2014-Aug-20 00:34N 39°15' E 119°57'2512.4
2014-Aug-19 22:31N 39°06' E 119°26'1511.1
2014-Aug-19 21:09N 39°05' E 119°07'6 9.5
2014-Aug-19 20:33N 39°10' E 119°03'4 1.8
2014-Aug-19 18:17N 39°13' E 118°60'0 0.0
2014-Aug-19 17:27N 39°13' E 118°60'0 0.0
2014-Aug-19 16:33N 39°13' E 118°60'0 0.0
2014-Aug-19 15:33N 39°13' E 118°60'0 0.0
2014-Aug-19 14:27N 39°13' E 118°60'0 0.0
2014-Aug-19 13:34N 39°13' E 118°60'0 0.0
2014-Aug-19 12:33N 39°13' E 118°60'0 0.0
2014-Aug-19 11:34N 39°13' E 118°60'0 0.0
2014-Aug-19 10:33N 39°13' E 118°60'0 0.0
2014-Aug-19 01:24N 39°13' E 118°60'0 0.0
2014-Aug-19 00:32N 39°13' E 118°60'0 0.0
2014-Aug-18 23:33N 39°13' E 118°60'0 0.0
2014-Aug-18 22:34N 39°13' E 118°60'0 0.0
2014-Aug-18 21:33N 39°13' E 118°60'0 0.0
2014-Aug-18 20:33N 39°13' E 118°60'0 0.0
2014-Aug-18 18:33N 39°13' E 118°60'0 0.0
2014-Aug-18 17:33N 39°13' E 118°60'0 0.0
2014-Aug-18 16:29N 39°13' E 118°60'0 0.0
2014-Aug-18 15:33N 39°13' E 118°60'0 0.0
2014-Aug-18 14:33N 39°13' E 118°60'0 0.0
2014-Aug-18 13:26N 39°13' E 118°60'0 0.0
2014-Aug-17 00:33N 39°13' E 118°60'0 0.0
2014-Aug-16 23:33N 39°13' E 118°60'0 0.0
2014-Aug-16 22:33N 39°13' E 118°60'0 0.0
2014-Aug-16 17:08N 39°13' E 118°60'0 0.0
2014-Aug-16 10:07N 39°13' E 118°60'0 0.0
2014-Aug-16 09:33N 39°13' E 118°60'11 1.1
2014-Aug-15 23:18N 39°02' E 119°02'0 0.0
2014-Aug-15 09:30N 39°02' E 119°02'0 0.1
2014-Aug-15 08:33N 39°02' E 119°02'40 5.7
2014-Aug-15 01:29N 38°50' E 118°13'1112.2
2014-Aug-15 00:33N 38°56' E 118°00'1111.5
2014-Aug-14 23:33N 38°58' E 117°46'0 0.4
2014-Aug-14 22:33N 38°59' E 117°45'0 0.0
2014-Aug-14 21:27N 38°59' E 117°45'0 0.0
2014-Aug-14 20:33N 38°59' E 117°45'0 0.0
2014-Aug-14 19:33N 38°59' E 117°45'0 0.0
2014-Aug-14 18:33N 38°59' E 117°45'0 0.0
2014-Aug-14 17:30N 38°59' E 117°45'0 0.0
2014-Aug-14 16:33N 38°59' E 117°45'0 0.0
2014-Aug-14 15:30N 38°59' E 117°45'0 0.0
2014-Aug-14 14:33N 38°59' E 117°45'0 0.0
2014-Aug-14 13:33N 38°59' E 117°45'0 0.0
2014-Aug-14 12:33N 38°59' E 117°45'0 0.0
2014-Aug-14 11:30N 38°59' E 117°45'0 0.0
2014-Aug-14 10:33N 38°59' E 117°45'0 0.0
2014-Aug-14 09:33N 38°59' E 117°45'0 0.0
2014-Aug-14 08:33N 38°59' E 117°45'1 0.8
2014-Aug-14 07:33N 38°58' E 117°46'1010.1
2014-Aug-14 06:33N 38°57' E 117°59'2 2.0
2014-Aug-14 05:32N 38°57' E 118°02'1 1.1
2014-Aug-14 04:33N 38°57' E 118°03'0 0.5
2014-Aug-14 03:33N 38°58' E 118°03'2 2.4
2014-Aug-14 02:33N 38°56' E 118°06'17711.0
2014-Aug-13 10:30N 40°24' E 121°25'29 2.1
2014-Aug-12 20:32N 40°48' E 121°04'0 0.0
2014-Aug-12 19:26N 40°48' E 121°04'0 0.0
2014-Aug-12 16:32N 40°48' E 121°04'0 0.0
2014-Aug-12 14:30N 40°48' E 121°04'0 0.0
2014-Aug-11 14:33N 40°48' E 121°04'0 0.0
2014-Aug-11 13:33N 40°48' E 121°04'0 0.0
2014-Aug-11 12:33N 40°48' E 121°04'1 0.7
2014-Aug-11 11:22N 40°47' E 121°04'8 7.8
2014-Aug-11 10:20N 40°39' E 121°04'  
Track history (hours):
 
Tides and Currents Weather Stations Pressure Air Temp Water Temp Dewpoint Dewpoint Depression Visibility Wind Speed Wind Dir Waves Ship Positions

Maratha Promise

Last reported at 2014-Aug-20 18:31 UTC. Time now 2014-Aug-21 19:58 UTC.
Position N 40°22' E 121°47'.

Length 178 m; draft 8.1 m.

Type: Cargo ship. MMSI: 538004641.

Date/timePositionNaut miles runAvg speedWind from/ knotsBaromVisibWave heightAir tempDewpointWater temp
2014-Aug-20 18:31N 40°22' E 121°47'0 0.0
2014-Aug-20 13:07N 40°22' E 121°47'0 0.1
2014-Aug-20 12:22N 40°22' E 121°47'0 0.1
2014-Aug-20 11:28N 40°22' E 121°47'2 0.9
2014-Aug-20 09:33N 40°21' E 121°45'9 8.5
2014-Aug-20 08:33N 40°15' E 121°37'1211.6
2014-Aug-20 07:33N 40°05' E 121°29'6312.5
2014-Aug-20 02:28N 39°24' E 120°27'2513.0
2014-Aug-20 00:34N 39°15' E 119°57'2512.4
2014-Aug-19 22:31N 39°06' E 119°26'1511.1
2014-Aug-19 21:09N 39°05' E 119°07'6 9.5
2014-Aug-19 20:33N 39°10' E 119°03'4 1.8
2014-Aug-19 18:17N 39°13' E 118°60'0 0.0
2014-Aug-19 17:27N 39°13' E 118°60'0 0.0
2014-Aug-19 16:33N 39°13' E 118°60'0 0.0
2014-Aug-19 15:33N 39°13' E 118°60'0 0.0
2014-Aug-19 14:27N 39°13' E 118°60'0 0.0
2014-Aug-19 13:34N 39°13' E 118°60'0 0.0
2014-Aug-19 12:33N 39°13' E 118°60'0 0.0
2014-Aug-19 11:34N 39°13' E 118°60'0 0.0
2014-Aug-19 10:33N 39°13' E 118°60'0 0.0
2014-Aug-19 01:24N 39°13' E 118°60'0 0.0
2014-Aug-19 00:32N 39°13' E 118°60'0 0.0
2014-Aug-18 23:33N 39°13' E 118°60'0 0.0
2014-Aug-18 22:34N 39°13' E 118°60'0 0.0
2014-Aug-18 21:33N 39°13' E 118°60'0 0.0
2014-Aug-18 20:33N 39°13' E 118°60'0 0.0
2014-Aug-18 18:33N 39°13' E 118°60'0 0.0
2014-Aug-18 17:33N 39°13' E 118°60'0 0.0
2014-Aug-18 16:29N 39°13' E 118°60'0 0.0
2014-Aug-18 15:33N 39°13' E 118°60'0 0.0
2014-Aug-18 14:33N 39°13' E 118°60'0 0.0
2014-Aug-18 13:26N 39°13' E 118°60'0 0.0
2014-Aug-17 00:33N 39°13' E 118°60'0 0.0
2014-Aug-16 23:33N 39°13' E 118°60'0 0.0
2014-Aug-16 22:33N 39°13' E 118°60'0 0.0
2014-Aug-16 17:08N 39°13' E 118°60'0 0.0
2014-Aug-16 10:07N 39°13' E 118°60'0 0.0
2014-Aug-16 09:33N 39°13' E 118°60'11 1.1
2014-Aug-15 23:18N 39°02' E 119°02'0 0.0
2014-Aug-15 09:30N 39°02' E 119°02'0 0.1
2014-Aug-15 08:33N 39°02' E 119°02'40 5.7
2014-Aug-15 01:29N 38°50' E 118°13'1112.2
2014-Aug-15 00:33N 38°56' E 118°00'1111.5
2014-Aug-14 23:33N 38°58' E 117°46'0 0.4
2014-Aug-14 22:33N 38°59' E 117°45'0 0.0
2014-Aug-14 21:27N 38°59' E 117°45'0 0.0
2014-Aug-14 20:33N 38°59' E 117°45'0 0.0
2014-Aug-14 19:33N 38°59' E 117°45'0 0.0
2014-Aug-14 18:33N 38°59' E 117°45'0 0.0
2014-Aug-14 17:30N 38°59' E 117°45'0 0.0
2014-Aug-14 16:33N 38°59' E 117°45'0 0.0
2014-Aug-14 15:30N 38°59' E 117°45'0 0.0
2014-Aug-14 14:33N 38°59' E 117°45'0 0.0
2014-Aug-14 13:33N 38°59' E 117°45'0 0.0
2014-Aug-14 12:33N 38°59' E 117°45'0 0.0
2014-Aug-14 11:30N 38°59' E 117°45'0 0.0
2014-Aug-14 10:33N 38°59' E 117°45'0 0.0
2014-Aug-14 09:33N 38°59' E 117°45'0 0.0
2014-Aug-14 08:33N 38°59' E 117°45'1 0.8
2014-Aug-14 07:33N 38°58' E 117°46'1010.1
2014-Aug-14 06:33N 38°57' E 117°59'2 2.0
2014-Aug-14 05:32N 38°57' E 118°02'1 1.1
2014-Aug-14 04:33N 38°57' E 118°03'0 0.5
2014-Aug-14 03:33N 38°58' E 118°03'2 2.4
2014-Aug-14 02:33N 38°56' E 118°06'17711.0
2014-Aug-13 10:30N 40°24' E 121°25'29 2.1
2014-Aug-12 20:32N 40°48' E 121°04'0 0.0
2014-Aug-12 19:26N 40°48' E 121°04'0 0.0
2014-Aug-12 16:32N 40°48' E 121°04'0 0.0
2014-Aug-12 14:30N 40°48' E 121°04'0 0.0
2014-Aug-11 14:33N 40°48' E 121°04'0 0.0
2014-Aug-11 13:33N 40°48' E 121°04'0 0.0
2014-Aug-11 12:33N 40°48' E 121°04'1 0.7
2014-Aug-11 11:22N 40°47' E 121°04'8 7.8
2014-Aug-11 10:20N 40°39' E 121°04'  

Dump ship's entire track history